Bonaria — ICUS — position and weather

sailwx.info

Track history (hours):
 
Tides and Currents Weather Stations Pressure Air Temp Water Temp Dewpoint Dewpoint Depression Visibility Wind Speed Wind Dir Waves Ship Positions

Bonaria

Last reported at 2015-Jul-06 20:29 UTC. Time now 2015-Jul-06 22:08 UTC.
Position N 41°19' E 011°11'.

Length 213 m; draft 6.8 m.

Type: Ship. MMSI: 247322400.

Date/timePositionNaut miles runAvg speedWind from/ knotsBaromVisibWave heightAir tempDewpointWater temp
2015-Jul-06 20:29N 41°19' E 011°11'1819.7
2015-Jul-06 19:33N 41°35' E 011°23'32 2.6
2015-Jul-06 07:32N 42°04' E 011°41'1717.5
2015-Jul-06 06:33N 41°50' E 011°28'2317.5
2015-Jul-06 05:15N 41°31' E 011°11'1617.2
2015-Jul-06 04:17N 41°18' E 010°58'1717.5
2015-Jul-06 03:19N 41°04' E 010°45'1918.0
2015-Jul-06 02:16N 40°48' E 010°30'1417.2
2015-Jul-06 01:28N 40°37' E 010°20'1917.4
2015-Jul-06 00:24N 40°22' E 010°06'2017.5
2015-Jul-05 23:15N 40°06' E 009°51'4812.9
2015-Jul-05 19:32N 39°18' E 009°42'2018.9
2015-Jul-05 18:29N 38°59' E 009°34'1920.6
2015-Jul-05 17:33N 39°08' E 009°11'6 5.7
2015-Jul-05 16:32N 39°12' E 009°07'0 0.0
2015-Jul-05 15:31N 39°12' E 009°07'0 0.0
2015-Jul-05 14:31N 39°12' E 009°07'0 0.0
2015-Jul-05 13:31N 39°12' E 009°07'0 0.0
2015-Jul-05 12:33N 39°12' E 009°07'0 0.0
2015-Jul-05 11:33N 39°12' E 009°07'0 0.0
2015-Jul-05 10:32N 39°12' E 009°07'0 0.0
2015-Jul-05 09:33N 39°12' E 009°07'0 0.0
2015-Jul-05 08:33N 39°12' E 009°07'0 0.0
2015-Jul-05 07:33N 39°12' E 009°07'0 0.0
2015-Jul-05 06:32N 39°12' E 009°07'7 6.9
2015-Jul-05 05:33N 39°08' E 009°13'1818.3
2015-Jul-05 04:33N 38°59' E 009°33'9619.1
2015-Jul-04 23:33N 40°23' E 010°32'2019.7
2015-Jul-04 22:33N 40°41' E 010°44'6119.3
2015-Jul-04 19:23N 41°35' E 011°21'35 2.5
2015-Jul-04 05:32N 42°06' E 011°44'9719.3
2015-Jul-04 00:32N 40°40' E 010°45'2119.9
2015-Jul-03 23:28N 40°21' E 010°32'7819.9
2015-Jul-03 19:33N 39°11' E 009°46'1817.5
2015-Jul-03 18:33N 38°60' E 009°29'1919.5
2015-Jul-03 17:34N 39°10' E 009°08'3 2.8
2015-Jul-03 16:31N 39°13' E 009°06'0 0.0
2015-Jul-03 15:31N 39°13' E 009°06'0 0.0
2015-Jul-03 14:33N 39°13' E 009°06'0 0.0
2015-Jul-03 13:33N 39°13' E 009°06'0 0.0
2015-Jul-03 12:32N 39°13' E 009°06'0 0.0
2015-Jul-03 11:32N 39°13' E 009°06'0 0.0
2015-Jul-03 10:32N 39°13' E 009°06'0 0.0
2015-Jul-03 09:31N 39°13' E 009°06'0 0.0
2015-Jul-03 08:31N 39°13' E 009°06'0 0.0
2015-Jul-03 07:33N 39°13' E 009°06'0 0.0
2015-Jul-03 06:33N 39°13' E 009°06'2 2.0
2015-Jul-03 05:33N 39°11' E 009°07'8516.0
2015-Jul-03 00:16N 40°11' E 010°24'1420.4
2015-Jul-02 23:33N 40°24' E 010°33'112 7.0
2015-Jul-02 07:33N 42°04' E 011°41'1917.5
2015-Jul-02 06:29N 41°48' E 011°27'1717.4
2015-Jul-02 05:32N 41°35' E 011°14'1717.4
2015-Jul-02 04:33N 41°21' E 011°01'2117.2
2015-Jul-02 03:22N 41°04' E 010°45'3817.4
2015-Jul-02 01:10N 40°33' E 010°17'1117.2
2015-Jul-02 00:33N 40°24' E 010°08'5212.9
2015-Jul-01 20:33N 39°36' E 009°44'2120.4
2015-Jul-01 19:32N 39°15' E 009°43'1817.7
2015-Jul-01 18:31N 38°59' E 009°30'2020.6
2015-Jul-01 17:33N 39°10' E 009°08'3 3.4
2015-Jul-01 16:32N 39°13' E 009°06'0 0.0
2015-Jul-01 15:32N 39°13' E 009°06'0 0.0
2015-Jul-01 14:31N 39°13' E 009°06'0 0.0
2015-Jul-01 13:31N 39°13' E 009°06'0 0.0
2015-Jul-01 12:33N 39°13' E 009°06'0 0.0
2015-Jul-01 11:33N 39°13' E 009°06'0 0.0
2015-Jul-01 10:33N 39°13' E 009°06'0 0.0
2015-Jul-01 09:32N 39°13' E 009°06'0 0.0
2015-Jul-01 08:32N 39°13' E 009°06'0 0.0
2015-Jul-01 07:31N 39°13' E 009°06'8211.3
2015-Jul-01 00:19N 40°09' E 010°23'1520.2
2015-Jun-30 23:33N 40°23' E 010°32'6519.9
2015-Jun-30 20:18N 41°21' E 011°11'1419.5
2015-Jun-30 19:33N 41°34' E 011°19'3817.9
2015-Jun-30 17:25N 42°06' E 011°46'24 1.8
2015-Jun-30 04:22N 41°46' E 011°30'1719.1
2015-Jun-30 03:27N 41°30' E 011°19'4519.5
2015-Jun-30 01:08N 40°51' E 010°52'1720.2
2015-Jun-30 00:19N 40°36' E 010°41'10120.0
2015-Jun-29 19:17N 39°06' E 009°42'1216.7
2015-Jun-29 18:34N 39°00' E 009°28'21 3.8
2015-Jun-29 13:06N 39°13' E 009°06'0 0.0
2015-Jun-29 12:27N 39°13' E 009°06'0 0.0
2015-Jun-29 11:23N 39°13' E 009°06'0 0.0
2015-Jun-29 10:33N 39°13' E 009°06'0 0.0
2015-Jun-29 09:32N 39°13' E 009°06'0 0.0
2015-Jun-29 06:33N 39°13' E 009°06'3 2.5
2015-Jun-29 05:32N 39°10' E 009°07'10116.1
2015-Jun-28 23:18N 40°26' E 010°34'1620.1
2015-Jun-28 22:31N 40°40' E 010°44'4219.7
2015-Jun-28 20:23N 41°17' E 011°09'56 8.9
2015-Jun-28 14:04N 42°06' E 011°47'0 0.0
2015-Jun-28 13:33N 42°06' E 011°47'20 2.2
2015-Jun-28 04:34N 41°49' E 011°32'15819.5
2015-Jun-27 20:28N 39°29' E 009°57'2219.5
2015-Jun-27 19:21N 39°09' E 009°44'1815.3
2015-Jun-27 18:10N 39°03' E 009°22'1219.9
2015-Jun-27 17:33N 39°10' E 009°08'3 3.3
2015-Jun-27 16:31N 39°13' E 009°06'0 0.0
2015-Jun-27 15:33N 39°13' E 009°06'0 0.0
2015-Jun-27 14:33N 39°13' E 009°06'0 0.0
2015-Jun-27 13:33N 39°13' E 009°06'0 0.0
2015-Jun-27 12:32N 39°13' E 009°06'0 0.0
2015-Jun-27 11:32N 39°13' E 009°06'0 0.0
2015-Jun-27 10:31N 39°13' E 009°06'0 0.0
2015-Jun-27 09:31N 39°13' E 009°06'0 0.0
2015-Jun-27 08:33N 39°13' E 009°06'8 7.6
2015-Jun-27 07:33N 39°07' E 009°13'2017.5
2015-Jun-27 06:24N 39°01' E 009°38'8514.5
2015-Jun-27 00:33N 40°23' E 010°06'  
Track history (hours):
 
Tides and Currents Weather Stations Pressure Air Temp Water Temp Dewpoint Dewpoint Depression Visibility Wind Speed Wind Dir Waves Ship Positions

Bonaria

Last reported at 2015-Jul-06 20:29 UTC. Time now 2015-Jul-06 22:08 UTC.
Position N 41°19' E 011°11'.

Length 213 m; draft 6.8 m.

Type: Ship. MMSI: 247322400.

Date/timePositionNaut miles runAvg speedWind from/ knotsBaromVisibWave heightAir tempDewpointWater temp
2015-Jul-06 20:29N 41°19' E 011°11'1819.7
2015-Jul-06 19:33N 41°35' E 011°23'32 2.6
2015-Jul-06 07:32N 42°04' E 011°41'1717.5
2015-Jul-06 06:33N 41°50' E 011°28'2317.5
2015-Jul-06 05:15N 41°31' E 011°11'1617.2
2015-Jul-06 04:17N 41°18' E 010°58'1717.5
2015-Jul-06 03:19N 41°04' E 010°45'1918.0
2015-Jul-06 02:16N 40°48' E 010°30'1417.2
2015-Jul-06 01:28N 40°37' E 010°20'1917.4
2015-Jul-06 00:24N 40°22' E 010°06'2017.5
2015-Jul-05 23:15N 40°06' E 009°51'4812.9
2015-Jul-05 19:32N 39°18' E 009°42'2018.9
2015-Jul-05 18:29N 38°59' E 009°34'1920.6
2015-Jul-05 17:33N 39°08' E 009°11'6 5.7
2015-Jul-05 16:32N 39°12' E 009°07'0 0.0
2015-Jul-05 15:31N 39°12' E 009°07'0 0.0
2015-Jul-05 14:31N 39°12' E 009°07'0 0.0
2015-Jul-05 13:31N 39°12' E 009°07'0 0.0
2015-Jul-05 12:33N 39°12' E 009°07'0 0.0
2015-Jul-05 11:33N 39°12' E 009°07'0 0.0
2015-Jul-05 10:32N 39°12' E 009°07'0 0.0
2015-Jul-05 09:33N 39°12' E 009°07'0 0.0
2015-Jul-05 08:33N 39°12' E 009°07'0 0.0
2015-Jul-05 07:33N 39°12' E 009°07'0 0.0
2015-Jul-05 06:32N 39°12' E 009°07'7 6.9
2015-Jul-05 05:33N 39°08' E 009°13'1818.3
2015-Jul-05 04:33N 38°59' E 009°33'9619.1
2015-Jul-04 23:33N 40°23' E 010°32'2019.7
2015-Jul-04 22:33N 40°41' E 010°44'6119.3
2015-Jul-04 19:23N 41°35' E 011°21'35 2.5
2015-Jul-04 05:32N 42°06' E 011°44'9719.3
2015-Jul-04 00:32N 40°40' E 010°45'2119.9
2015-Jul-03 23:28N 40°21' E 010°32'7819.9
2015-Jul-03 19:33N 39°11' E 009°46'1817.5
2015-Jul-03 18:33N 38°60' E 009°29'1919.5
2015-Jul-03 17:34N 39°10' E 009°08'3 2.8
2015-Jul-03 16:31N 39°13' E 009°06'0 0.0
2015-Jul-03 15:31N 39°13' E 009°06'0 0.0
2015-Jul-03 14:33N 39°13' E 009°06'0 0.0
2015-Jul-03 13:33N 39°13' E 009°06'0 0.0
2015-Jul-03 12:32N 39°13' E 009°06'0 0.0
2015-Jul-03 11:32N 39°13' E 009°06'0 0.0
2015-Jul-03 10:32N 39°13' E 009°06'0 0.0
2015-Jul-03 09:31N 39°13' E 009°06'0 0.0
2015-Jul-03 08:31N 39°13' E 009°06'0 0.0
2015-Jul-03 07:33N 39°13' E 009°06'0 0.0
2015-Jul-03 06:33N 39°13' E 009°06'2 2.0
2015-Jul-03 05:33N 39°11' E 009°07'8516.0
2015-Jul-03 00:16N 40°11' E 010°24'1420.4
2015-Jul-02 23:33N 40°24' E 010°33'112 7.0
2015-Jul-02 07:33N 42°04' E 011°41'1917.5
2015-Jul-02 06:29N 41°48' E 011°27'1717.4
2015-Jul-02 05:32N 41°35' E 011°14'1717.4
2015-Jul-02 04:33N 41°21' E 011°01'2117.2
2015-Jul-02 03:22N 41°04' E 010°45'3817.4
2015-Jul-02 01:10N 40°33' E 010°17'1117.2
2015-Jul-02 00:33N 40°24' E 010°08'5212.9
2015-Jul-01 20:33N 39°36' E 009°44'2120.4
2015-Jul-01 19:32N 39°15' E 009°43'1817.7
2015-Jul-01 18:31N 38°59' E 009°30'2020.6
2015-Jul-01 17:33N 39°10' E 009°08'3 3.4
2015-Jul-01 16:32N 39°13' E 009°06'0 0.0
2015-Jul-01 15:32N 39°13' E 009°06'0 0.0
2015-Jul-01 14:31N 39°13' E 009°06'0 0.0
2015-Jul-01 13:31N 39°13' E 009°06'0 0.0
2015-Jul-01 12:33N 39°13' E 009°06'0 0.0
2015-Jul-01 11:33N 39°13' E 009°06'0 0.0
2015-Jul-01 10:33N 39°13' E 009°06'0 0.0
2015-Jul-01 09:32N 39°13' E 009°06'0 0.0
2015-Jul-01 08:32N 39°13' E 009°06'0 0.0
2015-Jul-01 07:31N 39°13' E 009°06'8211.3
2015-Jul-01 00:19N 40°09' E 010°23'1520.2
2015-Jun-30 23:33N 40°23' E 010°32'6519.9
2015-Jun-30 20:18N 41°21' E 011°11'1419.5
2015-Jun-30 19:33N 41°34' E 011°19'3817.9
2015-Jun-30 17:25N 42°06' E 011°46'24 1.8
2015-Jun-30 04:22N 41°46' E 011°30'1719.1
2015-Jun-30 03:27N 41°30' E 011°19'4519.5
2015-Jun-30 01:08N 40°51' E 010°52'1720.2
2015-Jun-30 00:19N 40°36' E 010°41'10120.0
2015-Jun-29 19:17N 39°06' E 009°42'1216.7
2015-Jun-29 18:34N 39°00' E 009°28'21 3.8
2015-Jun-29 13:06N 39°13' E 009°06'0 0.0
2015-Jun-29 12:27N 39°13' E 009°06'0 0.0
2015-Jun-29 11:23N 39°13' E 009°06'0 0.0
2015-Jun-29 10:33N 39°13' E 009°06'0 0.0
2015-Jun-29 09:32N 39°13' E 009°06'0 0.0
2015-Jun-29 06:33N 39°13' E 009°06'3 2.5
2015-Jun-29 05:32N 39°10' E 009°07'10116.1
2015-Jun-28 23:18N 40°26' E 010°34'1620.1
2015-Jun-28 22:31N 40°40' E 010°44'4219.7
2015-Jun-28 20:23N 41°17' E 011°09'56 8.9
2015-Jun-28 14:04N 42°06' E 011°47'0 0.0
2015-Jun-28 13:33N 42°06' E 011°47'20 2.2
2015-Jun-28 04:34N 41°49' E 011°32'15819.5
2015-Jun-27 20:28N 39°29' E 009°57'2219.5
2015-Jun-27 19:21N 39°09' E 009°44'1815.3
2015-Jun-27 18:10N 39°03' E 009°22'1219.9
2015-Jun-27 17:33N 39°10' E 009°08'3 3.3
2015-Jun-27 16:31N 39°13' E 009°06'0 0.0
2015-Jun-27 15:33N 39°13' E 009°06'0 0.0
2015-Jun-27 14:33N 39°13' E 009°06'0 0.0
2015-Jun-27 13:33N 39°13' E 009°06'0 0.0
2015-Jun-27 12:32N 39°13' E 009°06'0 0.0
2015-Jun-27 11:32N 39°13' E 009°06'0 0.0
2015-Jun-27 10:31N 39°13' E 009°06'0 0.0
2015-Jun-27 09:31N 39°13' E 009°06'0 0.0
2015-Jun-27 08:33N 39°13' E 009°06'8 7.6
2015-Jun-27 07:33N 39°07' E 009°13'2017.5
2015-Jun-27 06:24N 39°01' E 009°38'8514.5
2015-Jun-27 00:33N 40°23' E 010°06'  

Dump ship's entire track history